アティラウ の空港の天気 - METARとTAF

Atyrau Airport ( UATG / GUW ) - カザフスタン Atyrau
飛行場実況気象(Metar)
観測時間01/20 07:30 ORAT (01/20 02:30 UTC)
風向・風速西 4m/s
視程5000m
天気現象もや
全天の8割程度の雲 雲底高度 790m
気温0℃
湿度100%
気圧1016hPa
METARUATG 200230Z 26004MPS 5000 BR BKN026 00/M00 Q1016 R32/19//65 NOSIG RMK QFE764/1019
過去の天気等 Google飛行場航空写真 Wunderground天気予報

過去48時間のMETAR

飛行場予報(TAF)
発表時間: 1/20 04:03 ORAT (1/19 23:03 UTC)
予報対象時間: 20日5時 ORAT ~ 21日5時 ORAT
風向・風速西 5m/s
視程2000m
天気現象もや
全天の8割程度の雲 雲底高度 150m
全天を覆う雲 雲底高度 300m
20日5時 ORAT ~ 20日11時 ORAT に一時的に
視程300m
天気現象弱い雪雨 氷霧
全天を覆う雲 雲底高度 30m
20日11時 ORAT ~ 20日15時 ORAT に一時的に
視程3000m
天気現象弱い雨雪 もや
全天の8割程度の雲 雲底高度 150m
全天を覆う雲 雲底高度 610m
TAF UATG 192303Z 2000/2024 26005MPS 2000 BR BKN005 OVC010 TX02/2010Z TNM00/2003Z
TEMPO 2000/2006 0300 -SNRA FZFG OVC001
TEMPO 2006/2010 3000 -RASN BR BKN005 OVC020